AirNav   Air Wisconsin Up To $57,000 Bonus
 
 1213 users online  

H58 Owen Field Airport
Seymour, Missouri, USA

GOING TO SEYMOUR?


FAA INFORMATION EFFECTIVE 22 APRIL 2021

Location

FAA Identifier: H58
Lat/Long: 37-11-02.5800N 092-44-13.3900W
37-11.043000N 092-44.223167W
37.1840500,-92.7370528
(estimated)
Elevation: 1593 ft. / 486 m (estimated)
Variation: 04E (1985)
From city: 3 miles NE of SEYMOUR, MO
Time zone: UTC -5 (UTC -6 during Standard Time)
Zip code: 65746

Airport Operations

Airport use: Open to the public
Activation date: 01/1946
Control tower: no
ARTCC: KANSAS CITY CENTER
FSS: COLUMBIA FLIGHT SERVICE STATION
NOTAMs facility: COU (NOTAM-D service available)
Attendance: UNATNDD
Wind indicator: yes
Segmented circle: no

Airport Communications

CTAF: 122.9

Nearby radio navigation aids

VOR radial/distance  VOR name  Freq  Var
DGDr034/11.7DOGWOOD VORTAC109.4001E
SGFr106/30.3SPRINGFIELD VORTAC116.9004E

Airport Services

Runway Information

Runway 1/19

Dimensions: 2800 x 45 ft. / 853 x 14 m
Surface: turf, in good condition
FIRST 1000 FT OF RY 19 HAS A VERY STEEP SLP WITH OBSTNS AT RY END.
RUNWAY 1  RUNWAY 19
Elevation: 1593.0 ft.1553.0 ft.
Traffic pattern: leftleft
Obstructions: 5 ft. fence, 125 ft. left and right of centerline51 ft. trees, 150 ft. from runway, 150 ft. left and right of centerline, 2:1 slope to clear

Runway 15/33

Dimensions: 1725 x 25 ft. / 526 x 8 m
Surface: turf, in fair condition
RY SFC ROUGH; ROLLING, UNEVEN & NARROW WITH TALL OBSTNS AT RY END.
RUNWAY 15  RUNWAY 33
Latitude: 37-11.169333N37-10.916667N
Longitude: 092-44.304667W092-44.141667W
Elevation: 1555.0 ft.1577.0 ft.
Traffic pattern: leftleft
Obstructions: 52 ft. trees, 100 ft. from runway, 55 ft. right of centerline, 1:1 slope to clear5 ft. trees, 150 ft. left and right of centerline

Airport Ownership and Management from official FAA records

Ownership: Privately-owned
Owner: KEVIN WRIGHT
BOX 223 1 OWEN DRIVE
SEYMOUR, MO 65746
Phone 417-848-0075
Manager: KEVIN WRIGHT
BOX 223 1 OWEN DRIVE
SEYMOUR, MO 65746
Phone 417-848-0075
ALTN PHONE NBR 417-848-0075

Airport Operational Statistics

Aircraft based on the field: 3
Single engine airplanes: 2
Ultralights: 1
  • ULTRALIGHT ACTIVITY ON & INVOF ARPT.
    
Aircraft operations: 30/year *
67% local general aviation
33% transient general aviation
* for 12-month period ending 31 October 2017

Additional Remarks

WILDLIFE ON & INVOF ARPT.
AFT HVY RAINS CALL 417-848-0075 FOR RY CONDS.
LN OF SIGHT FM RY ENDS OBSTD BY CHGS IN RY GRADE.
NTSD RY SAFETY AREAS BYD EACH RY END; INCORRECT TERRAIN GRADS, FENCES, CONCRETE FENCE POSTS, TREES, BRUSH, DITCHES, & BLDGS.
FOR CD CTC SPRINGFIELD APCH AT 417-868-5620/5619.

Instrument Procedures

There are no published instrument procedures at H58.

Some nearby airports with instrument procedures:

KAOV - Ava Bill Martin Memorial Airport (13 nm S)
1MO - Mountain Grove Memorial Airport (21 nm E)
3DW - Downtown Airport (25 nm W)
KLBO - Floyd W Jones Lebanon Airport (28 nm N)
KSGF - Springfield-Branson NTL Airport (31 nm W)
 
Loc | Ops | Rwys | IFR | FBO | Links
Com | Nav | Svcs | Stats | Notes

Branson Jet Center
AirBoss

 
Area around H58 (Owen Field Airport)
 
Road maps at: MapQuest Bing Google
 
Aerial photo
No photo
 
Sectional chart

 
Airport distance calculator
Flying to Owen Field Airport? Find the distance to fly.

From to H58

Sunrise and sunset
Times for 05-May-2021
 Local
(UTC-5)
 Zulu
(UTC)
Morning civil twilight05:4510:45
Sunrise06:1311:13
Sunset20:0201:02
Evening civil twilight20:3101:31

Current date and time
Zulu (UTC)  05-May-2021 22:33:57
Local (UTC-5)  05-May-2021 17:33:57
 
METAR
KLBO 
28nm N 
052215Z AUTO 01005KT 10SM CLR 21/M02 A3014 RMK AO2
KSGF 
31nm W 
052152Z VRB03KT 10SM CLR 20/02 A3013 RMK AO2 SLP202 T02000017
KFWB 
43nm SW 
052215Z AUTO VRB06KT 10SM CLR 21/03 A3013 RMK AO2
KTBN 
44nm NE 
052156Z AUTO 05004KT 10SM CLR 20/01 A3012 RMK AO2 SLP201 T02010005 $
KUNO 
44nm SE 
052153Z AUTO 00000KT 10SM CLR 21/02 A3013 RMK AO2 SLP199 T02110022
KBBG 
45nm SW 
052145Z 00000KT 10SM CLR 23/02 A3014
KOZS 
47nm N 
052215Z AUTO RMK AO2 PWINO PNO TSNO
TAF
KSGF 
31nm W 
051720Z 0518/0618 VRB04KT P6SM FEW250 FM061100 29006KT P6SM OVC200 FM061500 30011G19KT P6SM OVC060 FM061600 31012KT P6SM SCT025 OVC070
NOTAMs
Click for the latest NOTAMs
NOTAMs are issued by the DoD/FAA and will open in a separate window not controlled by AirNav.

 

 
 

Would you like to see your business listed on this page?

 If your business provides an interesting product or service to pilots, flight crews, aircraft, or users of the Owen Field Airport, you should consider listing it here.  To start the listing process, click on the button below
 
Add a business
 

Other Pages about Owen Field Airport

Update a link
 
Copyright © AirNav, LLC. All rights reserved. Privacy Policy  Contact